WEATHER DATA

YESTERDAY
Time Temp. Dewp. Hum. Wind dir Wind speed Wind gust Bar. 1h Prec. 24h Prec.
00:03 13.5 11 85 225 0.3 0.8 1019.1 0.0000 0.0000
00:13 13.3 10.8 85 206 0.6 0.8 1019 0.0000 0.0000
00:23 13.2 10.9 86 202 0.3 0.8 1018.9 0.0000 0.0000
00:33 13 10.7 86 207 0.8 1.4 1018.9 0.0000 0.0000
00:43 12.9 10.6 86 221 0.8 1.4 1018.9 0.0000 0.0000
01:03 12.7 10.6 87 221 0.8 1.1 1018.8 0.0000 0.0000
01:13 12.6 10.5 87 222 0.6 1.1 1018.8 0.0000 0.0000
01:24 12.5 10.4 87 208 0.6 1.1 1018.9 0.0000 0.0000
01:33 12.4 10.3 87 213 0.6 0.8 1018.8 0.0000 0.0000
01:43 12.2 10.1 87 209 0.8 1.4 1018.7 0.0000 0.0000
01:53 12.2 10.3 88 220 0.6 1.1 1018.7 0.0000 0.0000
02:04 12.1 10.2 88 215 0.6 1.1 1018.7 0.0000 0.0000
02:13 12.1 10.2 88 215 0.3 0.8 1018.6 0.0000 0.0000
02:23 12 10.1 88 199 0.3 0.8 1018.5 0.0000 0.0000
02:34 11.8 9.9 88 212 0.6 0.8 1018.2 0.0000 0.0000
02:44 11.7 9.8 88 220 1.1 1.4 1018.2 0.0000 0.0000
02:54 11.5 9.6 88 215 1.4 1.9 1018 0.0000 0.0000
03:03 11.4 9.5 88 225 0.8 1.7 1017.8 0.0000 0.0000
03:14 11.4 9.7 89 208 0.6 1.1 1017.7 0.0000 0.0000
03:24 11.3 9.6 89 270 0.3 0.8 1017.5 0.0000 0.0000
03:34 11.3 9.6 89 225 0.3 0.6 1017.5 0.0000 0.0000
03:44 11.2 9.5 89 218 0.3 0.8 1017.4 0.0000 0.0000
03:54 11.2 9.5 89 221 0.3 0.8 1017.2 0.0000 0.0000
04:04 11.1 9.4 89 225 0.6 1.1 1017.1 0.0000 0.0000
04:14 11 9.4 90 218 0.6 1.1 1016.9 0.0000 0.0000
04:24 10.9 9.3 90 222 0.6 1.1 1016.7 0.0000 0.0000
04:34 10.9 9.3 90 212 0.6 0.8 1016.5 0.0000 0.0000
04:44 10.8 9.2 90 225 0.6 1.1 1016.4 0.0000 0.0000
04:55 10.8 9.2 90 216 0.6 1.1 1016.3 0.0000 0.0000
05:04 10.7 9.1 90 212 0.6 1.4 1016.2 0.0000 0.0000
05:14 10.5 8.9 90 225 0.6 1.1 1016.1 0.0000 0.0000
05:24 10.4 8.8 90 204 0.6 0.8 1016.1 0.0000 0.0000
05:35 10.3 8.7 90 210 0.8 1.7 1016 0.0000 0.0000
05:44 10.2 8.6 90 210 0.6 1.1 1015.9 0.0000 0.0000
05:54 10.1 8.5 90 206 0.6 0.8 1015.7 0.0000 0.0000
06:05 10 8.4 90 270 0.3 0.8 1015.7 0.0000 0.0000
06:15 9.7 8.1 90 270 0.3 0.8 1015.7 0.0000 0.0000
06:25 9.6 8 90 270 0.3 0.6 1015.7 0.0000 0.0000
06:35 9.6 8 90 315 0.6 0.8 1015.6 0.0000 0.0000
06:45 9.3 7.7 90 213 0.3 0.8 1015.6 0.0000 0.0000
06:55 9 7.4 90 225 0.3 0.8 1015.6 0.0000 0.0000
07:05 9 7.6 91 225 0.6 1.7 1015.6 0.0000 0.0000
07:15 8.9 7.5 91 225 0.8 1.7 1015.5 0.0000 0.0000
07:25 8.8 7.4 91 231 1.1 1.7 1015.3 0.0000 0.0000
07:35 8.8 7.4 91 306 0.6 1.1 1015.3 0.0000 0.0000
07:45 8.6 7.2 91 300 0.6 1.1 1015.3 0.0000 0.0000
07:55 8.5 7.1 91 270 0.6 0.8 1015.3 0.0000 0.0000
08:05 8.5 7.3 92 299 0.6 1.1 1015.5 0.0000 0.0000
08:15 8.5 7.3 92 270 0.3 0.8 1015.5 0.0000 0.0000
08:26 8.6 7.4 92 289 0.6 1.1 1015.5 0.0000 0.0000
08:35 8.7 7.5 92 290 0.6 1.1 1015.6 0.0000 0.0000
08:45 8.8 7.7 93 270 0.3 1.1 1015.6 0.0000 0.0000
08:56 8.9 7.8 93 294 0.6 1.1 1015.6 0.0000 0.0000
09:06 9.1 8 93 295 0.6 1.4 1015.6 0.0000 0.0000
09:15 9.2 8.1 93 293 0.6 0.8 1015.6 0.0000 0.0000
09:25 9.4 8.5 94 270 0.6 1.1 1015.5 0.0000 0.0000
09:36 9.6 8.7 94 270 0.3 0.8 1015.3 0.0000 0.0000
09:46 9.8 8.9 94 270 0.6 1.1 1015.5 0.0000 0.0000
09:55 10 9.1 94 270 0.6 1.4 1015.5 0.0000 0.0000
10:06 10.3 9.4 94 270 0.3 0.8 1015.5 0.0000 0.0000
10:16 10.5 9.6 94 270 0.6 1.4 1015.5 0.0000 0.0000
10:26 10.5 9.6 94 302 0.6 1.7 1015.5 0.0000 0.0000
10:35 10.6 9.7 94 270 0.6 1.1 1015.3 0.0000 0.0000
10:46 10.8 9.9 94 225 0.3 1.1 1015.5 0.0000 0.0000
10:56 11.1 10.2 94 270 0.3 1.1 1015.5 0.0000 0.0000
11:06 11.4 10.5 94 213 0.3 1.1 1015.3 0.0000 0.0000
11:16 11.5 10.6 94 287 0.6 1.4 1015.3 0.0000 0.0000
11:26 11.8 11 95 0.6 1.4 1015.3 0.0000 0.0000
11:36 12.1 11.3 95 299 0.6 1.9 1015.2 0.0000 0.0000
11:46 12.8 12 95 156 0.6 1.1 1015.1 0.0000 0.0000
11:56 13.6 12.8 95 270 0.6 1.4 1015.1 0.0000 0.0000
12:06 14.1 13.1 94 116 0.6 1.4 1015 0.0000 0.0000
12:16 15 14 94 270 0.3 1.4 1014.8 0.0000 0.0000
12:27 15.5 14.5 94 143 0.3 1.1 1014.8 0.0000 0.0000
12:37 16.1 15.1 94 270 0.3 1.1 1014.6 0.0000 0.0000
12:46 16.9 15.9 94 198 0.3 1.1 1014.4 0.0000 0.0000
12:56 17.7 16.7 94 90 0.3 1.1 1014.2 0.0000 0.0000
13:07 18.4 17.2 93 270 0.3 1.1 1014 0.0000 0.0000
13:17 18.9 17.6 92 270 0.6 1.1 1013.6 0.0000 0.0000
13:26 19.6 17.2 86 315 0.3 1.1 1013.3 0.0000 0.0000
13:37 20.5 16.3 77 315 0.6 1.7 1013.2 0.0000 0.0000
13:47 21 16 73 310 0.8 1.7 1013 0.0000 0.0000
13:57 21.5 16 71 120 0.6 1.7 1012.8 0.0000 0.0000
14:07 21.9 16.2 70 90 0.6 1.4 1012.6 0.0000 0.0000
14:17 22.2 15.8 67 110 0.8 1.7 1012.3 0.0000 0.0000
14:27 22.8 16.1 66 216 1.1 2.2 1012.3 0.0000 0.0000
14:37 23.5 15.8 62 285 0.6 1.7 1012.2 0.0000 0.0000
14:48 24.2 14.9 56 343 0.8 2.2 1012 0.0000 0.0000
14:57 24.7 15.3 56 339 0.6 1.9 1012 0.0000 0.0000
15:07 25.3 14.7 52 213 1.9 5 1012 0.0000 0.0000
15:17 25.9 14.1 48 230 1.1 2.8 1011.7 0.0000 0.0000
15:28 26.3 13.1 44 256 1.4 5 1011.7 0.0000 0.0000
15:37 26.5 12.9 43 219 2.2 3.9 1011.6 0.0000 0.0000
15:47 26.8 13.2 43 288 0.8 2.5 1011.4 0.0000 0.0000
15:58 27.2 12.4 40 235 1.4 4.4 1011.4 0.0000 0.0000
16:08 27.4 12.6 40 329 0.8 2.8 1011.2 0.0000 0.0000
16:18 27.6 12 38 217 1.4 3.6 1011.1 0.0000 0.0000
16:28 27.7 12.9 40 208 0.8 1.9 1011.1 0.0000 0.0000
16:38 27.7 11.7 37 225 1.1 4.2 1011 0.0000 0.0000
16:48 27.5 11.9 38 220 0.8 2.8 1011 0.0000 0.0000
16:58 26.8 12.1 40 214 1.1 2.2 1010.8 0.0000 0.0000
17:08 26.4 12.1 41 219 0.8 2.2 1010.8 0.0000 0.0000
17:18 26.3 12 41 225 0.8 3.3 1010.7 0.0000 0.0000
17:28 26.2 12.6 43 270 0.3 1.1 1010.6 0.0000 0.0000
17:38 26 12.5 43 292 0.6 1.1 1010.6 0.0000 0.0000
17:48 25.9 12 42 222 1.4 3.6 1010.5 0.0000 0.0000
17:58 25.8 12.3 43 223 1.1 2.2 1010.4 0.0000 0.0000
18:08 25.8 12.3 43 225 1.1 2.5 1010.3 0.0000 0.0000
18:19 25.6 12.1 43 225 1.4 2.8 1010.3 0.0000 0.0000
18:28 25.5 12.4 44 218 1.4 2.5 1010.3 0.0000 0.0000
18:38 25.4 12.3 44 225 0.8 1.9 1010.3 0.0000 0.0000
18:49 25.4 12.6 45 226 1.1 1.7 1010.3 0.0000 0.0000
18:59 25.3 12.9 46 270 0.3 0.8 1010.3 0.0000 0.0000
19:08 25.3 12.5 45 222 0.8 1.7 1010.3 0.0000 0.0000
19:18 25.3 12.5 45 225 0.8 1.9 1010.3 0.0000 0.0000
19:29 24.8 14.6 53 206 0.6 1.7 1010.6 0.0000 0.0000
19:39 23.9 15.1 58 215 0.8 1.9 1010.8 0.0000 0.0000
19:49 22.9 15.2 62 202 1.1 3.6 1011.3 0.0000 0.0000
19:59 22.1 15.2 65 171 0.8 2.2 1011.6 0.0000 0.0000
20:09 21.2 15.1 68 239 1.4 3.9 1012 0.0000 0.0000
20:19 20.5 14.8 70 160 1.1 2.5 1012.2 0.0000 0.0000
20:29 19.9 14.7 72 225 0.8 2.2 1012.6 0.0000 0.0000
20:39 19.5 14.3 72 180 0.8 1.7 1012.9 0.0000 0.0000
20:49 19.2 14.2 73 165 0.8 1.7 1013.1 0.0000 0.0000
20:59 18.9 14.2 74 235 0.8 1.9 1013.3 0.0000 0.0000
21:10 18.7 14 74 212 0.6 1.7 1013.4 0.0000 0.0000
21:19 18.6 14.1 75 270 0.6 2.5 1013.6 0.0000 0.0000
21:29 18.5 13.8 74 244 0.6 2.2 1013.6 0.0000 0.0000
21:39 18.3 13.6 74 172 0.6 1.7 1013.7 0.0000 0.0000
21:50 18.2 13.5 74 208 0.6 1.4 1013.7 0.0000 0.0000
22:00 18.1 13.4 74 184 0.6 1.9 1014 0.0000 0.0000
22:09 18.1 13.4 74 208 0.3 1.1 1014 0.0000 0.0000
22:20 18 13.3 74 210 0.3 0.8 1014.2 0.0000 0.0000
22:30 18 13.3 74 225 0.3 1.1 1014.2 0.0000 0.0000
22:35 17.9 13.4 75 230 0.3 0.8 1014.4 0.4810 0.5000
22:45 17.6 13.5 77 135 0.3 1.1 1014.5 1.7640 1.8000
22:55 17.1 13.4 79 246 0.6 1.1 1014.5 1.7640 1.8000
23:06 16.7 13.4 81 315 0.3 0.6 1014.6 1.7640 1.8000
23:15 16.4 13.5 83 270 0.3 1.4 1014.7 1.7640 1.8000
23:25 16.2 13.5 84 149 0.6 1.1 1014.7 1.7640 1.8000
23:36 16 13.5 85 329 0.3 1.1 1014.7 0.8020 1.8000
23:46 15.9 13.6 86 239 0.3 0.8 1014.7 0.0000 1.8000
23:55 15.8 13.6 87 270 0.3 0.8 1014.8 0.0000

DAY STATISTIC

2021-09-17
TEMPERATURE
AVERAGE
16.3
HIGH
27.7
16:28
LOW
8.5
07:55
PRESSURE
AVERAGE
1014.5
HIGH
1019.1
00:03
LOW
1010.3
18:08
DEWPOINT
AVERAGE
11.6
HIGH
17.6
13:17
LOW
7.1
07:55
HUMIDITY
AVERAGE
77
HIGH
95
11:26
LOW
37
16:38
WIND SPEED
AVERAGE
0.7
HIGH
2.2
15:37
WIND GUST
AVERAGE
1.6
HIGH
5.0
15:07
WIND DIRECTION
PREVAILING
SW
51%
N
1.4
NE
0.0
E
2.1
SE
4.2
S
7.7
SW
51.0
W
22.4
NW
10.5
PRECIPITATION
RAIN HOUR
1.8
RAIN DAY
1.8
TEMPERATURE (°C)
LOW
8.5
HIGH
27.7
AVERAGE
16.3
PRESSURE (hpa)
LOW
1010.3
HIGH
1019.1
AVERAGE
1014.5
DEVICE